Time;durP1;ratioP1;P1;durP2;ratioP2;P2;SDS_P1;SDS_P2;PMS_P1;PMS_P2;Temp;Humidity;BMP_temperature;BMP_pressure;BME280_temperature;BME280_humidity;BME280_pressure;Samples;Min_cycle;Max_cycle;Signal;HPM_P1;HPM_P2
2022/07/25 00:01:29;;;;;;;13.00;10.40;;;;;;;22.79;62.64;100857.22;5019531;28;20032;-83
2022/07/25 00:03:55;;;;;;;10.82;9.73;;;;;;;22.75;62.28;100853.13;4996501;28;20018;-80
2022/07/25 00:06:20;;;;;;;12.15;9.65;;;;;;;22.66;61.82;100857.63;4996774;28;20113;-83
2022/07/25 00:08:45;;;;;;;10.57;9.40;;;;;;;22.68;62.52;100852.88;4991991;28;20042;-83
2022/07/25 00:11:11;;;;;;;11.80;9.82;;;;;;;22.65;62.20;100846.91;4996103;28;20392;-83
2022/07/25 00:13:36;;;;;;;11.13;9.07;;;;;;;22.62;61.76;100843.53;5020110;28;20026;-83
2022/07/25 00:16:02;;;;;;;10.75;9.63;;;;;;;22.60;62.87;100836.53;5017928;28;20025;-83
2022/07/25 00:18:27;;;;;;;12.15;9.68;;;;;;;22.58;62.56;100834.00;4990573;28;20038;-83
2022/07/25 00:20:52;;;;;;;13.13;10.35;;;;;;;22.53;62.70;100833.63;5015207;28;20308;-84
2022/07/25 00:23:17;;;;;;;13.13;9.93;;;;;;;22.50;63.14;100824.94;4997129;28;20018;-84
2022/07/25 00:25:43;;;;;;;11.70;10.43;;;;;;;22.50;63.07;100824.94;5002800;28;20041;-84
2022/07/25 00:28:08;;;;;;;42.60;34.25;;;;;;;22.47;63.22;100827.94;5023741;28;20013;-83
2022/07/25 00:30:33;;;;;;;53.95;43.85;;;;;;;22.47;63.73;100827.94;5012331;28;20437;-83
2022/07/25 00:32:59;;;;;;;34.58;27.23;;;;;;;22.45;63.06;100828.13;5022741;28;20032;-83
2022/07/25 00:35:25;;;;;;;23.80;20.08;;;;;;;22.36;63.60;100819.06;5017806;28;20428;-84
2022/07/25 00:37:50;;;;;;;19.05;15.10;;;;;;;22.31;63.50;100820.50;4992013;28;20571;-83
2022/07/25 00:40:16;;;;;;;14.50;12.05;;;;;;;22.24;63.60;100817.56;5002700;28;20422;-83
2022/07/25 00:42:41;;;;;;;14.10;12.25;;;;;;;22.25;63.95;100819.28;5009864;28;20027;-84
2022/07/25 00:45:07;;;;;;;13.80;11.75;;;;;;;22.23;63.99;100813.13;5012763;28;20064;-83
2022/07/25 00:47:32;;;;;;;14.90;11.63;;;;;;;22.22;64.46;100808.72;5017281;28;20029;-83
2022/07/25 00:49:57;;;;;;;12.60;11.30;;;;;;;22.20;64.28;100815.34;5002197;28;20120;-83
2022/07/25 00:52:23;;;;;;;14.57;10.93;;;;;;;22.18;64.48;100811.91;4991787;28;20061;-83
2022/07/25 00:54:49;;;;;;;13.55;10.25;;;;;;;22.06;64.31;100805.81;5005729;28;20029;-83
2022/07/25 00:57:15;;;;;;;11.38;10.18;;;;;;;22.03;64.21;100803.41;4998913;28;20109;-83
2022/07/25 00:59:40;;;;;;;11.85;10.35;;;;;;;21.99;64.95;100794.75;5000380;28;20105;-82
2022/07/25 01:02:06;;;;;;;10.85;9.68;;;;;;;22.01;64.16;100791.88;5013341;28;20044;-83
2022/07/25 01:04:31;;;;;;;11.93;9.57;;;;;;;21.96;63.66;100795.06;5010075;28;20036;-82
2022/07/25 01:06:57;;;;;;;12.93;10.43;;;;;;;21.96;64.38;100796.91;5027506;28;20060;-83
2022/07/25 01:09:22;;;;;;;11.27;10.18;;;;;;;21.86;63.92;100784.28;4987495;28;20042;-83
2022/07/25 01:11:48;;;;;;;14.93;10.15;;;;;;;21.84;63.99;100791.69;5005616;28;20086;-82
2022/07/25 01:14:13;;;;;;;10.38;9.38;;;;;;;21.83;64.08;100781.88;4998139;28;20473;-82
2022/07/25 01:16:40;;;;;;;10.82;9.70;;;;;;;21.83;64.82;100781.88;4994292;28;20480;-83
2022/07/25 01:19:06;;;;;;;11.60;10.40;;;;;;;21.81;64.52;100772.19;4982025;28;20029;-83
2022/07/25 01:21:31;;;;;;;11.52;10.32;;;;;;;21.77;64.66;100765.38;5000902;28;20034;-82
2022/07/25 01:23:56;;;;;;;11.27;10.10;;;;;;;21.76;63.67;100766.38;4993370;28;20098;-83
2022/07/25 01:26:22;;;;;;;11.13;9.82;;;;;;;21.71;64.18;100760.56;5003229;28;20037;-84
2022/07/25 01:28:47;;;;;;;11.77;9.45;;;;;;;21.69;63.90;100762.56;4995885;28;20053;-83
2022/07/25 01:31:12;;;;;;;10.55;9.18;;;;;;;21.64;64.36;100753.03;5012139;28;20021;-82
2022/07/25 01:33:38;;;;;;;11.27;10.18;;;;;;;21.59;64.04;100759.91;5005398;28;20026;-83
2022/07/25 01:36:04;;;;;;;12.00;9.23;;;;;;;21.62;64.17;100751.50;5009027;28;20041;-82
2022/07/25 01:38:29;;;;;;;11.63;9.98;;;;;;;21.55;64.24;100763.94;4994412;28;20065;-82
2022/07/25 01:40:54;;;;;;;12.45;10.10;;;;;;;21.57;64.53;100751.06;5008723;28;20105;-83
2022/07/25 01:43:20;;;;;;;12.27;10.05;;;;;;;21.56;64.42;100754.78;4987987;28;20034;-83
2022/07/25 01:45:45;;;;;;;10.85;9.70;;;;;;;21.54;64.23;100754.97;5003046;28;20069;-83
2022/07/25 01:48:10;;;;;;;12.93;10.15;;;;;;;21.51;63.46;100751.69;4991805;28;20069;-83
2022/07/25 01:50:36;;;;;;;11.23;9.98;;;;;;;21.46;64.20;100745.88;5003817;28;20033;-82
2022/07/25 01:53:01;;;;;;;10.52;9.43;;;;;;;21.50;63.95;100737.31;4990061;28;20027;-82
2022/07/25 01:55:27;;;;;;;11.82;9.75;;;;;;;21.52;64.09;100742.56;5005143;28;20053;-82
2022/07/25 01:57:52;;;;;;;10.68;9.52;;;;;;;21.51;63.02;100730.03;4993360;28;20091;-83
2022/07/25 02:00:17;;;;;;;10.68;9.40;;;;;;;21.52;63.24;100724.47;5004469;28;20023;-83
2022/07/25 02:02:43;;;;;;;11.48;9.73;;;;;;;21.47;63.60;100717.81;5004259;28;20025;-83
2022/07/25 02:05:10;;;;;;;11.82;9.95;;;;;;;21.48;63.40;100723.06;5023134;28;20037;-84
2022/07/25 02:07:36;;;;;;;10.52;9.52;;;;;;;21.49;63.07;100715.81;5010261;28;20048;-83
2022/07/25 02:10:03;;;;;;;11.85;8.98;;;;;;;21.46;63.03;100714.25;5007679;28;20480;-82
2022/07/25 02:12:28;;;;;;;11.98;9.38;;;;;;;21.49;63.14;100713.09;4990035;28;20105;-82
2022/07/25 02:14:54;;;;;;;10.10;8.55;;;;;;;21.41;62.37;100708.44;4990569;28;20095;-83
2022/07/25 02:17:20;;;;;;;9.63;8.52;;;;;;;21.44;62.86;100709.97;4998226;28;20109;-83
2022/07/25 02:19:45;;;;;;;11.63;8.63;;;;;;;21.35;62.47;100699.03;5005604;28;20077;-82
2022/07/25 02:22:10;;;;;;;12.13;8.43;;;;;;;21.37;62.17;100709.75;4993790;28;20439;-82
2022/07/25 02:24:36;;;;;;;9.95;8.48;;;;;;;21.41;61.72;100703.03;5003735;28;20100;-83
2022/07/25 02:27:03;;;;;;;11.73;9.05;;;;;;;21.36;61.70;100706.19;5017108;28;20040;-83
2022/07/25 02:29:28;;;;;;;11.10;8.45;;;;;;;21.37;62.04;100704.31;5012576;28;20029;-82
2022/07/25 02:31:53;;;;;;;9.60;8.52;;;;;;;21.34;62.11;100697.34;4994681;28;20031;-83
2022/07/25 02:34:19;;;;;;;10.75;8.18;;;;;;;21.35;62.02;100699.03;5000946;28;20038;-83
2022/07/25 02:36:45;;;;;;;10.13;9.02;;;;;;;21.31;62.15;100696.75;5015159;28;20068;-81
2022/07/25 02:39:10;;;;;;;11.88;9.15;;;;;;;21.31;61.84;100696.75;5005508;28;20042;-83
2022/07/25 02:41:36;;;;;;;10.82;9.15;;;;;;;21.31;62.00;100689.50;4985863;28;20022;-83
2022/07/25 02:44:02;;;;;;;10.43;8.68;;;;;;;21.31;62.17;100685.94;5011615;28;20049;-83
2022/07/25 02:46:28;;;;;;;10.85;8.75;;;;;;;21.29;62.44;100682.53;4990191;28;20050;-83
2022/07/25 02:48:53;;;;;;;10.43;9.02;;;;;;;21.24;61.35;100676.75;5001657;28;20034;-82
2022/07/25 02:51:18;;;;;;;10.32;9.23;;;;;;;21.22;62.06;100678.72;4977325;28;20104;-83
2022/07/25 02:53:43;;;;;;;10.82;8.75;;;;;;;21.18;62.33;100680.88;5013535;28;20030;-82
2022/07/25 02:56:09;;;;;;;9.93;8.93;;;;;;;21.18;62.91;100672.75;5001808;28;20527;-82
2022/07/25 02:58:34;;;;;;;13.10;9.45;;;;;;;21.12;62.15;100674.22;5002126;28;20165;-83
2022/07/25 03:00:59;;;;;;;10.80;8.75;;;;;;;21.13;62.75;100677.78;4997831;28;20245;-82
2022/07/25 03:03:25;;;;;;;11.30;9.75;;;;;;;21.13;62.02;100672.38;4995659;28;20113;-83
2022/07/25 03:05:50;;;;;;;11.35;9.40;;;;;;;21.12;62.01;100679.63;5000159;28;20062;-82
2022/07/25 03:08:15;;;;;;;10.60;8.98;;;;;;;21.11;62.47;100683.34;5007972;28;20026;-83
2022/07/25 03:10:41;;;;;;;12.70;9.35;;;;;;;21.10;61.48;100669.94;4996408;28;20490;-82
2022/07/25 03:13:06;;;;;;;10.55;9.50;;;;;;;21.09;61.74;100662.84;4989090;28;20480;-82
2022/07/25 03:15:31;;;;;;;13.70;9.57;;;;;;;21.03;61.97;100652.63;5003152;28;20584;-83
2022/07/25 03:17:57;;;;;;;11.50;9.35;;;;;;;21.05;61.99;100650.63;4997250;28;20092;-82
2022/07/25 03:20:22;;;;;;;10.73;9.18;;;;;;;21.03;62.47;100650.78;5014436;28;20365;-82
2022/07/25 03:22:47;;;;;;;11.35;9.10;;;;;;;20.97;62.66;100659.47;4995792;28;20056;-82
2022/07/25 03:25:13;;;;;;;9.88;8.73;;;;;;;20.95;62.77;100645.25;4993282;28;20038;-82
2022/07/25 03:27:38;;;;;;;9.57;8.45;;;;;;;20.93;62.49;100649.94;5007704;28;20400;-80
2022/07/25 03:30:04;;;;;;;9.82;8.80;;;;;;;20.89;62.96;100659.38;4997408;28;20031;-83
2022/07/25 03:32:29;;;;;;;12.85;9.40;;;;;;;20.86;61.70;100647.00;4991295;28;20065;-84
2022/07/25 03:34:55;;;;;;;11.27;9.48;;;;;;;20.84;62.56;100640.88;5014544;28;20088;-83
2022/07/25 03:37:20;;;;;;;12.15;9.60;;;;;;;20.85;62.10;100653.41;5022837;28;20022;-83
2022/07/25 03:39:45;;;;;;;11.00;9.77;;;;;;;20.86;62.21;100652.44;5009607;28;20667;-82
2022/07/25 03:42:11;;;;;;;12.30;9.82;;;;;;;20.80;61.83;100644.03;5030535;28;20037;-83
2022/07/25 03:44:36;;;;;;;11.32;9.57;;;;;;;20.89;61.50;100656.66;5010051;28;20605;-82
2022/07/25 03:47:02;;;;;;;11.02;9.35;;;;;;;20.89;61.54;100646.69;5006077;28;20026;-82
2022/07/25 03:49:27;;;;;;;11.43;9.63;;;;;;;20.91;61.60;100643.00;5008328;28;20041;-82
2022/07/25 03:51:53;;;;;;;11.20;9.35;;;;;;;20.88;61.76;100650.41;5028888;28;20032;-82
2022/07/25 03:54:18;;;;;;;10.45;9.45;;;;;;;20.87;61.75;100642.44;5025432;28;20041;-83
2022/07/25 03:56:45;;;;;;;11.02;9.38;;;;;;;20.83;61.52;100644.59;5006578;28;20407;-83
2022/07/25 03:59:19;;;;;;;11.02;8.65;;;;;;;20.84;61.63;100635.47;5008943;28;20041;-83
2022/07/25 04:01:46;;;;;;;9.95;8.65;;;;;;;20.82;61.53;100637.50;5013563;28;20060;-83
2022/07/25 04:04:12;;;;;;;10.63;8.80;;;;;;;20.81;62.08;100634.91;5027031;28;20067;-83
2022/07/25 04:06:39;;;;;;;9.20;8.13;;;;;;;20.83;61.62;100625.66;5007917;28;20025;-83
2022/07/25 04:09:05;;;;;;;10.73;9.07;;;;;;;20.84;61.32;100627.34;5010063;28;20415;-82
2022/07/25 04:11:31;;;;;;;9.25;8.18;;;;;;;20.87;62.32;100627.06;4993022;28;20026;-83
2022/07/25 04:13:57;;;;;;;10.10;9.00;;;;;;;20.87;61.19;100629.78;5012163;28;20032;-82
2022/07/25 04:16:23;;;;;;;11.63;9.02;;;;;;;20.85;61.49;100626.34;4999343;28;20065;-82
2022/07/25 04:18:50;;;;;;;10.73;8.80;;;;;;;20.84;62.02;100623.81;4990884;28;20115;-82
2022/07/25 04:21:15;;;;;;;9.50;8.55;;;;;;;20.89;61.71;100625.06;5009124;28;20383;-83
2022/07/25 04:23:40;;;;;;;9.45;8.45;;;;;;;20.88;61.76;100619.81;5007485;28;20034;-82
2022/07/25 04:26:05;;;;;;;11.07;9.02;;;;;;;20.94;60.93;100631.88;5001706;28;20542;-82
2022/07/25 04:28:31;;;;;;;9.80;8.80;;;;;;;20.96;61.20;100629.88;5019287;28;20037;-83
2022/07/25 04:30:57;;;;;;;9.68;8.68;;;;;;;20.96;61.48;100621.75;5016651;28;20034;-82
2022/07/25 04:33:22;;;;;;;9.88;8.88;;;;;;;21.03;60.98;100625.56;5000613;28;20030;-82
2022/07/25 04:35:48;;;;;;;10.10;8.43;;;;;;;21.07;60.66;100621.56;5024080;28;20029;-82
2022/07/25 04:38:13;;;;;;;9.77;8.32;;;;;;;21.05;60.63;100623.56;5008172;28;20046;-82
2022/07/25 04:40:39;;;;;;;10.43;8.70;;;;;;;21.12;60.06;100622.81;5018412;28;20033;-82
2022/07/25 04:43:04;;;;;;;11.77;8.63;;;;;;;21.11;60.53;100631.09;5011600;28;20222;-82
2022/07/25 04:45:31;;;;;;;9.30;8.30;;;;;;;21.08;60.38;100631.38;5026283;28;20056;-83
2022/07/25 04:47:56;;;;;;;10.40;8.70;;;;;;;21.12;60.28;100630.06;4992698;28;20029;-82
2022/07/25 04:50:21;;;;;;;11.25;8.45;;;;;;;21.17;60.22;100632.31;5008842;28;20228;-81
2022/07/25 04:52:47;;;;;;;10.23;8.40;;;;;;;21.21;60.40;100639.13;5009120;28;20118;-83
2022/07/25 04:55:12;;;;;;;9.25;7.88;;;;;;;21.26;60.05;100626.84;5010117;28;20117;-81
2022/07/25 04:57:38;;;;;;;9.18;7.97;;;;;;;21.35;60.20;100623.25;5012654;28;20037;-83
2022/07/25 05:00:05;;;;;;;8.65;7.85;;;;;;;21.39;59.20;100619.22;5009259;28;20030;-83
2022/07/25 05:02:30;;;;;;;8.85;7.95;;;;;;;21.46;58.89;100613.22;4989199;28;20463;-83
2022/07/25 05:04:55;;;;;;;8.73;7.53;;;;;;;21.49;58.41;100612.91;4988547;28;20141;-83
2022/07/25 05:07:21;;;;;;;9.02;7.70;;;;;;;21.54;58.52;100618.72;5006947;28;20026;-84
2022/07/25 05:09:46;;;;;;;8.18;7.38;;;;;;;21.62;58.46;100621.50;5009545;28;20041;-83
2022/07/25 05:12:11;;;;;;;9.82;7.95;;;;;;;21.73;57.86;100621.25;4992679;28;20089;-82
2022/07/25 05:14:37;;;;;;;10.10;7.63;;;;;;;21.79;58.31;100620.63;4989047;28;20056;-83
2022/07/25 05:17:02;;;;;;;9.88;7.70;;;;;;;21.88;57.50;100619.69;5008730;28;20026;-83
2022/07/25 05:19:28;;;;;;;10.35;6.90;;;;;;;21.96;56.83;100620.78;5009696;28;20022;-93
2022/07/25 05:21:53;;;;;;;7.45;6.57;;;;;;;22.02;56.98;100614.72;5008687;28;20447;-83
2022/07/25 05:24:18;;;;;;;8.38;6.82;;;;;;;22.05;56.89;100625.25;4995451;28;20035;-84
2022/07/25 05:26:44;;;;;;;7.68;6.47;;;;;;;22.05;56.68;100626.09;4994737;28;20026;-83
2022/07/25 05:29:09;;;;;;;10.65;6.57;;;;;;;22.06;56.96;100626.94;5009322;28;20033;-81
2022/07/25 05:31:35;;;;;;;8.10;6.97;;;;;;;22.08;56.58;100627.66;5012213;28;20403;-82
2022/07/25 05:34:01;;;;;;;10.95;7.20;;;;;;;22.10;56.54;100626.47;5008254;28;20395;-83
2022/07/25 05:36:27;;;;;;;9.77;6.93;;;;;;;22.16;56.18;100625.03;5006490;28;20158;-83
2022/07/25 05:38:52;;;;;;;10.70;6.90;;;;;;;22.22;56.53;100624.38;5008369;28;20064;-81
2022/07/25 05:41:18;;;;;;;9.68;7.93;;;;;;;22.30;56.26;100624.44;5008683;28;20080;-82
2022/07/25 05:43:45;;;;;;;9.98;7.53;;;;;;;22.35;55.87;100622.09;5008911;28;20022;-83
2022/07/25 05:46:11;;;;;;;9.95;7.05;;;;;;;22.50;56.48;100626.94;5011149;28;20429;-82
2022/07/25 05:48:36;;;;;;;10.88;7.20;;;;;;;22.56;56.33;100626.28;4981667;28;20141;-82
2022/07/25 05:51:02;;;;;;;9.27;6.90;;;;;;;22.64;56.00;100626.34;5012501;28;20385;-81
2022/07/25 05:53:27;;;;;;;12.13;7.57;;;;;;;22.74;55.38;100632.50;4990306;28;20360;-82
2022/07/25 05:55:53;;;;;;;8.88;6.80;;;;;;;22.80;55.58;100633.72;4994292;28;20675;-83
2022/07/25 05:58:18;;;;;;;8.85;6.80;;;;;;;22.78;56.06;100627.59;5013894;28;20025;-83
2022/07/25 06:00:44;;;;;;;7.38;6.60;;;;;;;22.74;55.46;100627.09;4997004;28;20559;-83
2022/07/25 06:03:09;;;;;;;9.65;7.25;;;;;;;22.67;56.02;100625.19;4989798;28;21834;-83
2022/07/25 06:05:34;;;;;;;8.95;6.90;;;;;;;22.69;56.73;100633.97;5003960;28;20018;-82
2022/07/25 06:08:00;;;;;;;11.63;8.00;;;;;;;22.66;55.72;100631.59;4995600;28;20041;-83
2022/07/25 06:10:25;;;;;;;10.15;8.50;;;;;;;22.58;55.76;100622.41;5003664;28;20034;-82
2022/07/25 06:12:50;;;;;;;8.75;6.13;;;;;;;22.56;55.64;100640.69;4997762;28;20085;-81
2022/07/25 06:15:16;;;;;;;11.73;8.00;;;;;;;22.64;55.54;100642.59;5012705;28;20033;-82
2022/07/25 06:17:41;;;;;;;13.73;8.82;;;;;;;22.66;55.41;100640.59;5013511;28;20036;-82
2022/07/25 06:20:07;;;;;;;10.20;6.28;;;;;;;22.69;54.96;100650.25;5018763;28;20097;-82
2022/07/25 06:22:33;;;;;;;8.20;5.95;;;;;;;22.66;55.13;100643.31;5005829;28;20114;-84
2022/07/25 06:25:01;;;;;;;7.90;5.90;;;;;;;22.60;55.09;100647.50;5032322;28;20091;-84
2022/07/25 06:27:26;;;;;;;7.78;5.53;;;;;;;22.56;55.22;100656.13;5008120;28;20037;-80
2022/07/25 06:29:51;;;;;;;12.90;6.07;;;;;;;22.66;55.17;100662.31;5017908;28;20030;-82
2022/07/25 06:32:17;;;;;;;7.32;6.00;;;;;;;22.73;55.15;100655.19;5010047;28;20077;-82
2022/07/25 06:34:42;;;;;;;8.88;6.95;;;;;;;22.83;54.79;100665.97;5015784;28;20116;-83
2022/07/25 06:37:08;;;;;;;7.95;5.57;;;;;;;22.99;54.97;100662.47;5007242;28;20022;-81
2022/07/25 06:39:33;;;;;;;7.45;5.65;;;;;;;23.18;53.40;100656.78;5014445;28;20065;-80
2022/07/25 06:41:59;;;;;;;7.25;5.55;;;;;;;23.30;53.06;100654.63;5039090;28;20542;-84
2022/07/25 06:44:24;;;;;;;7.70;5.38;;;;;;;23.33;52.61;100654.31;4995628;28;20034;-83
2022/07/25 06:46:50;;;;;;;10.52;5.65;;;;;;;23.28;53.23;100649.38;5012780;28;20025;-82
2022/07/25 06:49:15;;;;;;;6.45;5.28;;;;;;;23.21;53.29;100675.47;5009797;28;20034;-82
2022/07/25 06:51:40;;;;;;;7.53;5.35;;;;;;;23.04;53.30;100671.84;4997661;28;21627;-83
2022/07/25 06:54:06;;;;;;;5.68;5.07;;;;;;;22.89;54.15;100673.44;5009892;28;20037;-83
2022/07/25 06:56:31;;;;;;;7.45;5.20;;;;;;;22.79;54.22;100672.72;5006168;28;20030;-83
2022/07/25 06:58:57;;;;;;;7.72;4.70;;;;;;;22.63;54.36;100657.19;5006845;28;20089;-84
2022/07/25 07:01:23;;;;;;;6.72;5.03;;;;;;;22.62;54.83;100656.34;5003439;28;20053;-83
2022/07/25 07:03:48;;;;;;;6.43;4.80;;;;;;;22.64;54.71;100656.16;4983846;28;20029;-83
2022/07/25 07:06:13;;;;;;;6.88;4.53;;;;;;;22.60;54.84;100654.78;5003942;28;20026;-84
2022/07/25 07:08:39;;;;;;;9.18;6.00;;;;;;;22.56;55.26;100656.97;5011354;28;20509;-81
2022/07/25 07:11:05;;;;;;;7.78;5.28;;;;;;;22.60;55.64;100655.63;5001726;28;20384;-83
2022/07/25 07:13:30;;;;;;;9.68;5.80;;;;;;;22.66;55.84;100646.03;5000539;28;20038;-83
2022/07/25 07:15:55;;;;;;;6.93;5.13;;;;;;;22.71;56.01;100646.38;4999354;28;21424;-84
2022/07/25 07:18:21;;;;;;;5.82;4.43;;;;;;;22.79;56.09;100657.28;4996781;28;20052;-82
2022/07/25 07:20:47;;;;;;;6.53;4.40;;;;;;;22.77;55.82;100656.59;5010388;28;20030;-82
2022/07/25 07:23:13;;;;;;;5.28;4.07;;;;;;;22.87;56.09;100662.75;5008044;28;20030;-83
2022/07/25 07:25:38;;;;;;;6.53;4.22;;;;;;;23.13;56.16;100666.47;4990988;28;20030;-83
2022/07/25 07:28:04;;;;;;;8.80;4.28;;;;;;;23.62;54.59;100662.03;4995221;28;20034;-84
2022/07/25 07:30:30;;;;;;;7.82;4.05;;;;;;;24.21;52.92;100665.47;5003945;28;20037;-84
2022/07/25 07:32:55;;;;;;;6.47;3.67;;;;;;;24.53;52.02;100658.31;5006094;28;20040;-83
2022/07/25 07:35:20;;;;;;;6.85;4.38;;;;;;;24.61;51.74;100652.84;4996543;28;20507;-85
2022/07/25 07:37:46;;;;;;;11.85;5.32;;;;;;;24.30;51.90;100664.44;4998708;28;20044;-82
2022/07/25 07:40:13;;;;;;;6.15;4.20;;;;;;;24.05;52.89;100665.47;4978017;28;20181;-83
2022/07/25 07:42:44;;;;;;;7.15;3.72;;;;;;;23.89;54.08;100660.88;4978012;28;20026;-84
2022/07/25 07:45:11;;;;;;;7.43;3.63;;;;;;;23.83;54.49;100667.00;4998731;28;20379;-83
2022/07/25 07:47:37;;;;;;;6.22;3.75;;;;;;;23.84;54.36;100668.69;5002686;28;20032;-83
2022/07/25 07:50:02;;;;;;;5.65;3.35;;;;;;;23.83;54.81;100676.00;5004913;28;20034;-83
2022/07/25 07:52:28;;;;;;;7.90;3.90;;;;;;;23.79;55.42;100684.66;4993486;28;20060;-82
2022/07/25 07:57:37;;;;;;;6.88;3.20;;;;;;;24.29;54.56;100675.50;4999866;28;20427;-83
2022/07/25 08:00:03;;;;;;;6.03;2.75;;;;;;;24.73;54.18;100675.13;5004028;28;20116;-82
2022/07/25 08:02:28;;;;;;;8.27;2.80;;;;;;;25.49;51.56;100669.03;5010207;28;20033;-83
2022/07/25 08:04:54;;;;;;;5.32;2.90;;;;;;;26.23;50.68;100673.97;5007184;28;20037;-84
2022/07/25 08:07:19;;;;;;;7.40;2.70;;;;;;;26.99;47.65;100672.00;4991016;28;20034;-83
2022/07/25 08:09:44;;;;;;;4.53;2.35;;;;;;;27.74;45.98;100668.16;4990883;28;20064;-84
2022/07/25 08:12:10;;;;;;;6.85;2.75;;;;;;;28.49;45.21;100664.00;4990770;28;20033;-82
2022/07/25 08:14:35;;;;;;;7.10;2.30;;;;;;;28.48;44.59;100660.41;5007756;28;20390;-83
2022/07/25 08:17:00;;;;;;;5.20;2.47;;;;;;;27.79;45.62;100666.50;4991760;28;20420;-84
2022/07/25 08:19:26;;;;;;;4.80;2.50;;;;;;;27.37;46.68;100675.47;4999712;28;20044;-84
2022/07/25 08:21:51;;;;;;;4.30;2.30;;;;;;;27.28;46.82;100679.34;4995863;28;20026;-83
2022/07/25 08:24:16;;;;;;;6.53;2.50;;;;;;;27.69;46.36;100676.91;5008670;28;20024;-83
2022/07/25 08:26:42;;;;;;;5.75;2.35;;;;;;;27.95;46.47;100675.50;4998945;28;20080;-84
2022/07/25 08:29:07;;;;;;;4.45;2.25;;;;;;;27.73;46.50;100675.50;4992272;28;20033;-85
2022/07/25 08:31:32;;;;;;;4.15;2.42;;;;;;;27.39;46.51;100678.03;5011116;28;20034;-85
2022/07/25 08:33:58;;;;;;;4.88;2.95;;;;;;;27.20;47.77;100693.13;5011215;28;20029;-85
2022/07/25 08:36:23;;;;;;;5.95;2.58;;;;;;;27.51;47.48;100690.16;4986612;28;20108;-85
2022/07/25 08:38:48;;;;;;;5.78;2.92;;;;;;;27.87;46.01;100692.03;4994142;28;20054;-85
2022/07/25 08:41:13;;;;;;;5.68;2.40;;;;;;;29.04;44.80;100695.97;5001831;28;20030;-85
2022/07/25 08:43:40;;;;;;;4.72;2.50;;;;;;;30.55;41.07;100694.91;5009999;28;20033;-84
2022/07/25 08:46:05;;;;;;;4.63;2.42;;;;;;;31.29;40.54;100694.56;5006590;28;20045;-84
2022/07/25 08:48:31;;;;;;;6.22;1.95;;;;;;;31.90;38.90;100684.97;5009915;28;20463;-85
2022/07/25 08:51:01;;;;;;;4.22;2.17;;;;;;;32.36;37.07;100695.63;5000390;28;20045;-85
2022/07/25 08:53:28;;;;;;;6.10;1.98;;;;;;;32.67;36.99;100691.97;4995488;28;20034;-84
2022/07/25 08:55:53;;;;;;;4.60;2.00;;;;;;;32.96;36.08;100682.16;5002786;28;20022;-84
2022/07/25 08:58:18;;;;;;;6.95;1.95;;;;;;;32.14;36.72;100684.16;4995945;28;20045;-85
2022/07/25 09:00:45;;;;;;;5.88;1.80;;;;;;;30.86;39.02;100691.53;4993982;28;20061;-83
2022/07/25 09:03:11;;;;;;;4.30;1.90;;;;;;;30.50;40.31;100690.88;4992772;28;20651;-84
2022/07/25 09:05:37;;;;;;;5.30;1.90;;;;;;;30.75;40.78;100695.75;4990014;28;20117;-85
2022/07/25 09:08:09;;;;;;;6.00;1.80;;;;;;;31.28;39.67;100697.53;4998925;28;20026;-83
2022/07/25 09:10:35;;;;;;;3.65;1.60;;;;;;;31.75;38.56;100688.84;5004345;28;20034;-83
2022/07/25 09:13:04;;;;;;;4.03;1.63;;;;;;;32.67;36.40;100694.72;4997191;28;20545;-83
2022/07/25 09:15:37;;;;;;;3.50;1.33;;;;;;;33.11;36.20;100695.56;5005944;28;20382;-83
2022/07/25 09:18:06;;;;;;;6.20;1.42;;;;;;;33.72;34.35;100705.63;4991435;28;20531;-84
2022/07/25 09:20:53;;;;;;;6.53;1.67;;;;;;;34.05;35.07;100700.72;5006734;28;20160;-84
2022/07/25 09:23:30;;;;;;;4.03;1.77;;;;;;;33.66;34.55;100698.28;5007529;28;20384;-84
2022/07/25 09:26:08;;;;;;;5.70;1.85;;;;;;;33.40;35.19;100691.19;5004617;28;20071;-84
2022/07/25 09:28:41;;;;;;;4.07;1.73;;;;;;;32.64;35.89;100706.19;4996603;28;20391;-83
2022/07/25 09:31:08;;;;;;;6.93;1.77;;;;;;;33.12;35.86;100708.28;4986658;28;20029;-83
2022/07/25 09:33:42;;;;;;;5.93;1.80;;;;;;;34.18;33.44;100717.91;5006167;28;20443;-84
2022/07/25 09:36:11;;;;;;;3.10;1.70;;;;;;;33.73;34.17;100725.78;4984770;28;20030;-84
2022/07/25 09:38:36;;;;;;;5.25;1.55;;;;;;;32.17;35.80;100729.66;4995952;28;20042;-84
2022/07/25 09:41:02;;;;;;;9.23;3.53;;;;;;;30.83;39.33;100731.25;4999289;28;20271;-84
2022/07/25 09:43:42;;;;;;;7.63;2.60;;;;;;;30.05;40.83;100730.97;5007061;28;20026;-84
2022/07/25 09:46:08;;;;;;;3.78;2.05;;;;;;;29.92;40.63;100726.28;4996225;28;20035;-82
2022/07/25 09:48:35;;;;;;;4.68;1.90;;;;;;;30.12;40.99;100740.06;4977646;28;20030;-84
2022/07/25 09:51:00;;;;;;;7.45;2.53;;;;;;;29.76;41.71;100734.91;4996931;28;20080;-83
2022/07/25 09:53:26;;;;;;;5.25;1.73;;;;;;;29.53;43.30;100735.22;4980398;28;20400;-83
2022/07/25 09:55:55;;;;;;;5.97;2.13;;;;;;;30.43;41.51;100733.13;4990116;28;20040;-84
2022/07/25 09:58:22;;;;;;;3.90;1.80;;;;;;;32.31;38.39;100734.00;5008340;28;20030;-86
2022/07/25 10:00:49;;;;;;;6.75;1.83;;;;;;;33.88;32.43;100739.19;5003390;28;20037;-86
2022/07/25 10:03:34;;;;;;;5.47;2.05;;;;;;;34.35;30.64;100744.84;4995034;28;20041;-85
2022/07/25 10:06:08;;;;;;;6.15;1.83;;;;;;;34.91;31.09;100743.50;5006113;28;20392;-85
2022/07/25 10:08:36;;;;;;;4.70;1.80;;;;;;;36.13;29.35;100746.09;5004756;28;20018;-84
2022/07/25 10:11:04;;;;;;;3.22;1.60;;;;;;;37.00;27.61;100736.47;5008379;28;20479;-85
2022/07/25 10:13:33;;;;;;;6.88;4.93;;;;;;;37.50;26.63;100754.94;4999285;28;20026;-86
2022/07/25 10:15:58;;;;;;;4.35;1.77;;;;;;;37.23;27.40;100745.66;5006753;28;20032;-84
2022/07/25 10:18:26;;;;;;;5.90;2.30;;;;;;;35.71;28.77;100751.09;5014495;28;20037;-86
2022/07/25 10:21:11;;;;;;;7.68;3.05;;;;;;;36.07;29.25;100752.63;4989909;28;20026;-84
2022/07/25 10:23:37;;;;;;;8.52;2.88;;;;;;;35.65;28.32;100758.44;5011655;28;20117;-84
2022/07/25 10:26:15;;;;;;;6.20;2.97;;;;;;;35.88;29.03;100753.91;5016679;28;20050;-85
2022/07/25 10:28:51;;;;;;;3.50;2.20;;;;;;;36.41;28.04;100745.22;5031627;28;20006;-85
2022/07/25 10:31:20;;;;;;;4.68;2.20;;;;;;;36.49;27.81;100755.03;5013589;28;20022;-86
2022/07/25 10:33:58;;;;;;;6.57;2.25;;;;;;;37.28;27.25;100738.22;5018696;28;20013;-85
2022/07/25 10:36:28;;;;;;;5.55;2.10;;;;;;;37.49;25.19;100741.28;5030792;28;20022;-84
2022/07/25 10:38:59;;;;;;;3.53;2.10;;;;;;;36.99;26.56;100745.03;5028386;28;20057;-85
2022/07/25 10:41:25;;;;;;;4.72;2.08;;;;;;;35.56;28.27;100750.78;5017377;28;20058;-84
2022/07/25 10:43:54;;;;;;;5.95;2.67;;;;;;;34.90;29.42;100739.03;5003075;28;20002;-84
2022/07/25 10:46:22;;;;;;;6.45;3.78;;;;;;;35.15;28.30;100753.47;5023500;28;20049;-86
2022/07/25 10:48:59;;;;;;;6.15;2.90;;;;;;;33.89;30.83;100743.63;5009750;28;20026;-87
2022/07/25 10:51:30;;;;;;;4.00;2.10;;;;;;;32.69;32.40;100750.47;5023753;28;20125;-85
2022/07/25 10:53:56;;;;;;;5.80;2.35;;;;;;;32.93;32.06;100747.94;5020457;28;20032;-85
2022/07/25 10:56:24;;;;;;;5.07;2.20;;;;;;;33.75;30.32;100750.41;5007127;28;20037;-86
2022/07/25 10:59:00;;;;;;;8.07;2.15;;;;;;;35.54;28.03;100756.56;4993672;28;20034;-85
2022/07/25 11:01:33;;;;;;;7.35;4.43;;;;;;;35.75;27.94;100766.13;5005848;28;20061;-84
2022/07/25 11:04:05;;;;;;;5.90;3.00;;;;;;;34.31;29.46;100755.53;5003285;28;20042;-85
2022/07/25 11:06:38;;;;;;;4.97;2.20;;;;;;;33.31;30.61;100755.16;5004162;28;20030;-85
2022/07/25 11:09:14;;;;;;;3.55;2.15;;;;;;;32.56;31.74;100747.81;4995633;28;20029;-86
2022/07/25 11:11:46;;;;;;;4.47;2.30;;;;;;;32.69;31.88;100747.72;4997235;28;20057;-84
2022/07/25 11:14:30;;;;;;;3.08;2.17;;;;;;;32.55;31.93;100759.91;5006577;28;20484;-86
2022/07/25 11:16:56;;;;;;;4.70;2.35;;;;;;;32.73;31.79;100762.75;5012359;28;20088;-84
2022/07/25 11:19:23;;;;;;;6.28;2.35;;;;;;;32.58;32.54;100762.22;4986251;28;20480;-84
2022/07/25 11:21:56;;;;;;;6.03;2.45;;;;;;;32.69;32.15;100769.78;5010450;28;20088;-85